createdAt,value
2022-07-28T00:00:16.603Z,999.90
2022-07-28T00:02:45.674Z,999.90
2022-07-28T00:05:13.365Z,999.90
2022-07-28T00:07:42.050Z,999.90
2022-07-28T00:10:10.903Z,999.90
2022-07-28T00:12:39.111Z,999.90
2022-07-28T00:15:08.310Z,999.90
2022-07-28T00:17:35.935Z,999.90
2022-07-28T00:20:06.363Z,999.90
2022-07-28T00:22:34.079Z,999.90
2022-07-28T00:25:01.679Z,999.90
2022-07-28T00:27:29.803Z,999.90
2022-07-28T00:29:57.377Z,999.90
2022-07-28T00:32:24.943Z,999.90
2022-07-28T00:34:52.889Z,999.90
2022-07-28T00:37:22.710Z,999.90
2022-07-28T00:39:50.794Z,999.90
2022-07-28T00:42:19.268Z,999.90
2022-07-28T00:44:47.160Z,999.90
2022-07-28T00:47:14.924Z,999.90
2022-07-28T00:49:42.557Z,999.90
2022-07-28T00:52:11.044Z,999.90
2022-07-28T00:54:40.211Z,999.90
2022-07-28T00:57:07.941Z,999.90
2022-07-28T00:59:35.714Z,999.90
2022-07-28T01:02:03.470Z,999.90
2022-07-28T01:04:31.334Z,999.90
2022-07-28T01:07:18.756Z,999.90
2022-07-28T01:09:54.231Z,999.90
2022-07-28T01:12:31.049Z,999.90
2022-07-28T01:15:04.633Z,999.90
2022-07-28T01:17:39.210Z,999.90
2022-07-28T01:20:11.081Z,999.90
2022-07-28T01:22:41.703Z,999.90
2022-07-28T01:25:19.452Z,999.90
2022-07-28T01:27:54.286Z,999.90
2022-07-28T01:30:32.520Z,999.90
2022-07-28T01:33:02.626Z,999.90
2022-07-28T01:35:32.688Z,999.90
2022-07-28T01:38:03.005Z,999.90
2022-07-28T01:40:33.387Z,999.90
2022-07-28T01:43:04.217Z,999.90
2022-07-28T01:45:34.267Z,999.90
2022-07-28T01:48:04.038Z,999.90
2022-07-28T01:50:32.377Z,999.90
2022-07-28T01:53:00.193Z,999.90
2022-07-28T01:55:27.944Z,999.90
2022-07-28T01:57:56.712Z,999.90
2022-07-28T02:00:25.635Z,999.90
2022-07-28T02:02:57.812Z,999.90
2022-07-28T02:05:27.330Z,999.90
2022-07-28T02:07:57.119Z,999.90
2022-07-28T02:10:24.914Z,999.90
2022-07-28T02:12:53.776Z,999.90
2022-07-28T02:15:22.261Z,999.90
2022-07-28T02:17:50.859Z,999.90
2022-07-28T02:20:21.051Z,999.90
2022-07-28T02:22:52.091Z,999.90
2022-07-28T02:25:20.414Z,999.90
2022-07-28T02:27:50.352Z,999.90
2022-07-28T02:30:20.247Z,999.90
2022-07-28T02:32:50.606Z,999.90
2022-07-28T02:35:25.934Z,999.90
2022-07-28T02:38:02.152Z,999.90
2022-07-28T02:40:35.812Z,999.90
2022-07-28T02:43:04.385Z,999.90
2022-07-28T02:45:32.953Z,999.90
2022-07-28T02:48:04.640Z,999.90
2022-07-28T02:50:33.623Z,999.90
2022-07-28T02:53:14.891Z,999.90
2022-07-28T02:55:43.902Z,999.90
2022-07-28T02:58:12.656Z,999.90
2022-07-28T03:00:41.345Z,999.90
2022-07-28T03:03:09.608Z,999.90
2022-07-28T03:05:41.061Z,999.90
2022-07-28T03:08:08.781Z,999.90
2022-07-28T03:10:36.410Z,999.90
2022-07-28T03:13:05.283Z,999.90
2022-07-28T03:15:32.997Z,999.90
2022-07-28T03:18:00.764Z,999.90
2022-07-28T03:20:28.480Z,999.90
2022-07-28T03:22:58.275Z,999.90
2022-07-28T03:25:29.805Z,999.90
2022-07-28T03:27:59.047Z,999.90
2022-07-28T03:30:30.346Z,999.90
2022-07-28T03:33:00.012Z,999.90
2022-07-28T03:35:28.025Z,999.90
2022-07-28T03:37:59.285Z,999.90
2022-07-28T03:40:29.523Z,999.90
2022-07-28T03:42:58.536Z,999.90
2022-07-28T03:45:26.302Z,999.90
2022-07-28T03:47:55.003Z,999.90
2022-07-28T03:50:24.073Z,999.90
2022-07-28T03:52:51.924Z,999.90
2022-07-28T03:55:20.971Z,999.90
2022-07-28T03:57:48.768Z,89.90
2022-07-28T04:00:17.326Z,999.90
2022-07-28T04:02:45.167Z,999.90
2022-07-28T04:05:13.344Z,999.90
2022-07-28T04:07:41.909Z,687.40
2022-07-28T04:10:11.276Z,999.90
2022-07-28T04:12:50.712Z,67.27
2022-07-28T04:15:19.185Z,999.90
2022-07-28T04:17:48.559Z,999.90
2022-07-28T04:20:17.266Z,679.27
2022-07-28T04:22:45.088Z,999.90
2022-07-28T04:25:13.865Z,33.37
2022-07-28T04:27:41.614Z,367.60
2022-07-28T04:30:13.333Z,673.80
2022-07-28T04:32:41.152Z,21.77
2022-07-28T04:35:14.032Z,999.90
2022-07-28T04:37:44.756Z,999.90
2022-07-28T04:40:13.506Z,89.57
2022-07-28T04:42:41.817Z,28.50
2022-07-28T04:45:12.671Z,999.90
2022-07-28T04:47:40.770Z,999.90
2022-07-28T04:50:10.057Z,999.90
2022-07-28T04:52:38.231Z,674.23
2022-07-28T04:55:07.315Z,999.90
2022-07-28T04:57:35.484Z,999.90
2022-07-28T05:00:12.205Z,999.90
2022-07-28T05:02:43.363Z,999.90
2022-07-28T05:05:11.798Z,999.90
2022-07-28T05:07:40.111Z,999.90
2022-07-28T05:10:09.873Z,999.90
2022-07-28T05:12:37.601Z,999.90
2022-07-28T05:15:05.372Z,999.90
2022-07-28T05:17:32.945Z,999.90
2022-07-28T05:20:02.537Z,999.90
2022-07-28T05:22:42.400Z,999.90
2022-07-28T05:25:17.547Z,15.67
2022-07-28T05:27:45.792Z,27.87
2022-07-28T05:30:14.522Z,254.47
2022-07-28T05:32:42.357Z,603.07
2022-07-28T05:35:11.765Z,937.03
2022-07-28T05:37:39.533Z,943.30
2022-07-28T05:40:13.655Z,999.90
2022-07-28T05:42:41.939Z,999.90
2022-07-28T05:45:15.046Z,999.90
2022-07-28T05:47:46.362Z,999.90
2022-07-28T05:50:16.026Z,999.90
2022-07-28T05:52:44.097Z,999.90
2022-07-28T05:55:12.098Z,953.67
2022-07-28T05:57:40.248Z,839.53
2022-07-28T06:00:09.712Z,858.33
2022-07-28T06:02:38.233Z,502.67
2022-07-28T06:05:07.133Z,538.97
2022-07-28T06:07:43.277Z,610.67
2022-07-28T06:10:12.361Z,924.33
2022-07-28T06:12:41.423Z,999.90
2022-07-28T06:15:12.906Z,996.73
2022-07-28T06:17:40.458Z,999.90
2022-07-28T06:20:09.586Z,999.90
2022-07-28T06:22:45.601Z,999.90
2022-07-28T06:25:15.044Z,690.17
2022-07-28T06:27:42.654Z,999.90
2022-07-28T06:30:11.089Z,988.33
2022-07-28T06:32:38.808Z,19.47
2022-07-28T06:35:07.559Z,950.27
2022-07-28T06:37:35.193Z,975.57
2022-07-28T06:40:04.774Z,944.77
2022-07-28T06:42:32.391Z,928.03
2022-07-28T06:45:00.271Z,902.33
2022-07-28T06:47:28.097Z,880.83
2022-07-28T06:49:55.757Z,889.07
2022-07-28T06:52:23.421Z,287.50
2022-07-28T06:54:52.265Z,801.80
2022-07-28T06:57:22.939Z,793.13
2022-07-28T07:00:01.243Z,16.63
2022-07-28T07:02:28.815Z,236.10
2022-07-28T07:04:56.425Z,584.73
2022-07-28T07:07:25.050Z,589.90
2022-07-28T07:09:52.704Z,466.70
2022-07-28T07:12:22.175Z,999.90
2022-07-28T07:14:49.777Z,15.50
2022-07-28T07:17:17.450Z,13.97
2022-07-28T07:19:45.117Z,13.30
2022-07-28T07:22:14.582Z,13.40
2022-07-28T07:24:42.240Z,13.53
2022-07-28T07:27:09.895Z,13.97
2022-07-28T07:29:38.938Z,18.07
2022-07-28T07:32:10.553Z,12.90
2022-07-28T07:34:39.355Z,15.23
2022-07-28T07:37:07.558Z,15.20
2022-07-28T07:39:35.157Z,14.80
2022-07-28T07:42:02.763Z,14.97
2022-07-28T07:44:30.720Z,12.80
2022-07-28T07:46:59.664Z,15.67
2022-07-28T07:49:44.964Z,15.37
2022-07-28T07:52:14.066Z,14.90
2022-07-28T07:54:41.729Z,13.70
2022-07-28T07:57:09.691Z,13.43
2022-07-28T07:59:37.362Z,15.53
2022-07-28T08:02:06.992Z,15.63
2022-07-28T08:04:37.085Z,17.93
2022-07-28T08:07:05.696Z,15.90
2022-07-28T08:09:33.844Z,14.87
2022-07-28T08:12:01.463Z,11.80
2022-07-28T08:14:29.090Z,13.00
2022-07-28T08:16:59.099Z,177.10
2022-07-28T08:19:28.096Z,513.57
2022-07-28T08:21:56.351Z,999.90
2022-07-28T08:24:32.929Z,181.50
2022-07-28T08:27:02.158Z,175.77
2022-07-28T08:29:29.803Z,508.20
2022-07-28T08:31:57.626Z,161.57
2022-07-28T08:34:29.889Z,477.97
2022-07-28T08:37:04.236Z,165.93
2022-07-28T08:39:32.264Z,450.00
2022-07-28T08:42:03.175Z,517.40
2022-07-28T08:44:37.649Z,999.90
2022-07-28T08:47:05.441Z,198.23
2022-07-28T08:49:33.803Z,196.87
2022-07-28T08:52:11.208Z,602.87
2022-07-28T08:54:42.631Z,567.10
2022-07-28T08:57:11.545Z,999.90
2022-07-28T08:59:39.873Z,202.43
2022-07-28T09:02:11.125Z,510.67
2022-07-28T09:04:39.822Z,306.67
2022-07-28T09:07:09.345Z,435.00
2022-07-28T09:09:37.023Z,18.67
2022-07-28T09:12:05.713Z,17.27
2022-07-28T09:14:33.526Z,19.40
2022-07-28T09:17:01.885Z,199.50
2022-07-28T09:19:34.090Z,564.83
2022-07-28T09:22:03.522Z,215.53
2022-07-28T09:24:37.112Z,576.93
2022-07-28T09:27:07.709Z,599.87
2022-07-28T09:29:36.055Z,621.90
2022-07-28T09:32:04.190Z,635.67
2022-07-28T09:34:40.511Z,650.33
2022-07-28T09:37:09.044Z,676.20
2022-07-28T09:39:38.243Z,328.50
2022-07-28T09:42:06.260Z,952.50
2022-07-28T09:44:33.861Z,999.90
2022-07-28T09:47:01.603Z,101.77
2022-07-28T09:49:43.468Z,242.93
2022-07-28T09:52:12.160Z,999.90
2022-07-28T09:55:00.600Z,96.87
2022-07-28T09:57:28.533Z,999.90
2022-07-28T09:59:58.603Z,96.93
2022-07-28T10:02:28.020Z,15.90
2022-07-28T10:04:59.627Z,94.43
2022-07-28T10:07:29.186Z,100.80
2022-07-28T10:09:59.874Z,253.57
2022-07-28T10:12:28.667Z,213.37
2022-07-28T10:14:57.408Z,299.23
2022-07-28T10:17:27.077Z,103.37
2022-07-28T10:19:57.595Z,107.93
2022-07-28T10:22:27.744Z,101.43
2022-07-28T10:24:57.483Z,112.27
2022-07-28T10:27:26.727Z,104.03
2022-07-28T10:29:58.379Z,277.93
2022-07-28T10:32:26.551Z,285.00
2022-07-28T10:35:01.284Z,999.90
2022-07-28T10:37:29.010Z,110.97
2022-07-28T10:40:05.275Z,167.30
2022-07-28T10:42:37.822Z,114.40
2022-07-28T10:45:06.291Z,116.50
2022-07-28T10:47:35.829Z,128.30
2022-07-28T10:50:04.906Z,16.37
2022-07-28T10:52:51.291Z,126.57
2022-07-28T10:55:31.860Z,351.07
2022-07-28T11:00:12.792Z,115.37
2022-07-28T11:02:48.871Z,550.67
2022-07-28T11:05:35.336Z,792.77
2022-07-28T11:08:05.757Z,310.30
2022-07-28T11:10:47.793Z,827.37
2022-07-28T11:13:32.784Z,19.57
2022-07-28T11:16:21.757Z,325.30
2022-07-28T11:19:07.717Z,333.50
2022-07-28T11:21:39.608Z,317.07
2022-07-28T11:24:08.916Z,881.07
2022-07-28T11:26:45.944Z,323.30
2022-07-28T11:29:20.473Z,865.93
2022-07-28T11:31:59.449Z,914.83
2022-07-28T11:34:27.332Z,728.57
2022-07-28T11:37:02.524Z,808.00
2022-07-28T11:39:31.475Z,806.97
2022-07-28T11:42:26.035Z,289.73
2022-07-28T11:44:53.813Z,258.77
2022-07-28T11:47:24.238Z,720.63
2022-07-28T11:50:13.953Z,759.23
2022-07-28T11:52:53.739Z,762.80
2022-07-28T11:55:21.650Z,748.57
2022-07-28T11:58:09.196Z,999.90
2022-07-28T12:00:36.988Z,267.63
2022-07-28T12:03:06.185Z,261.60
2022-07-28T12:05:34.548Z,683.03
2022-07-28T12:08:09.485Z,744.43
2022-07-28T12:10:55.321Z,782.30
2022-07-28T12:13:28.666Z,717.60
2022-07-28T12:15:56.307Z,691.70
2022-07-28T12:18:25.483Z,999.90
2022-07-28T12:20:54.402Z,999.90
2022-07-28T12:23:38.929Z,999.90
2022-07-28T12:26:14.205Z,999.90
2022-07-28T12:28:50.340Z,999.90
2022-07-28T12:31:18.075Z,999.90
2022-07-28T12:33:47.056Z,999.90
2022-07-28T12:36:18.657Z,999.90
2022-07-28T12:38:46.780Z,999.90
2022-07-28T12:41:15.853Z,999.90
2022-07-28T12:43:50.649Z,541.30
2022-07-28T12:46:21.389Z,999.90
2022-07-28T12:48:50.781Z,999.90
2022-07-28T12:51:31.520Z,38.80
2022-07-28T12:53:59.081Z,535.57
2022-07-28T12:56:26.736Z,999.90
2022-07-28T12:59:05.610Z,530.97
2022-07-28T13:01:47.147Z,518.37
2022-07-28T13:04:16.763Z,683.83
2022-07-28T13:06:44.812Z,880.30
2022-07-28T13:09:23.356Z,999.90
2022-07-28T13:11:51.024Z,524.67
2022-07-28T13:14:18.938Z,999.90
2022-07-28T13:16:58.269Z,999.90
2022-07-28T13:19:27.185Z,999.90
2022-07-28T13:22:01.726Z,999.90
2022-07-28T13:24:32.332Z,536.50
2022-07-28T13:27:00.652Z,999.90
2022-07-28T13:29:28.380Z,999.90
2022-07-28T13:31:56.177Z,999.90
2022-07-28T13:34:23.959Z,999.90
2022-07-28T13:36:53.270Z,995.27
2022-07-28T13:39:20.883Z,395.10
2022-07-28T13:41:56.920Z,393.37
2022-07-28T13:44:25.776Z,984.63
2022-07-28T13:46:53.437Z,998.93
2022-07-28T13:49:23.481Z,999.90
2022-07-28T13:51:51.549Z,999.90
2022-07-28T13:54:21.011Z,999.90
2022-07-28T13:56:49.445Z,999.90
2022-07-28T13:59:17.310Z,999.90
2022-07-28T14:01:49.756Z,415.00
2022-07-28T14:04:18.557Z,966.97
2022-07-28T14:06:48.935Z,999.90
2022-07-28T14:09:17.852Z,404.53
2022-07-28T14:11:50.146Z,999.90
2022-07-28T14:14:21.229Z,999.90
2022-07-28T14:16:52.680Z,389.50
2022-07-28T14:19:23.452Z,508.10
2022-07-28T14:22:12.185Z,999.90
2022-07-28T14:24:41.141Z,407.50
2022-07-28T14:27:10.870Z,999.90
2022-07-28T14:29:38.624Z,404.20
2022-07-28T14:32:06.726Z,999.90
2022-07-28T14:34:34.644Z,999.90
2022-07-28T14:37:03.459Z,990.03
2022-07-28T14:39:36.039Z,999.90
2022-07-28T14:42:04.151Z,689.07
2022-07-28T14:44:33.124Z,962.30
2022-07-28T14:47:00.823Z,616.77
2022-07-28T14:49:28.675Z,563.37
2022-07-28T14:51:57.779Z,530.00
2022-07-28T14:54:25.571Z,527.73
2022-07-28T14:56:53.173Z,492.87
2022-07-28T14:59:20.777Z,170.80
2022-07-28T15:01:50.105Z,532.50
2022-07-28T15:04:18.542Z,170.57
2022-07-28T15:06:47.200Z,512.60
2022-07-28T15:09:15.257Z,164.63
2022-07-28T15:11:44.628Z,538.20
2022-07-28T15:14:12.426Z,181.63
2022-07-28T15:16:42.696Z,537.13
2022-07-28T15:19:12.162Z,649.60
2022-07-28T15:21:40.724Z,718.57
2022-07-28T15:24:09.680Z,717.27
2022-07-28T15:26:37.263Z,683.33
2022-07-28T15:29:05.233Z,645.93
2022-07-28T15:31:32.945Z,695.87
2022-07-28T15:34:00.872Z,663.17
2022-07-28T15:36:30.221Z,673.30
2022-07-28T15:38:57.817Z,17.10
2022-07-28T15:41:25.468Z,217.37
2022-07-28T15:43:53.079Z,671.53
2022-07-28T15:46:20.920Z,215.07
2022-07-28T15:48:48.615Z,721.53
2022-07-28T15:51:16.236Z,689.07
2022-07-28T15:53:46.616Z,643.33
2022-07-28T15:56:14.959Z,688.87
2022-07-28T15:58:42.633Z,687.90
2022-07-28T16:01:10.239Z,342.43
2022-07-28T16:03:37.804Z,188.53
2022-07-28T16:06:05.789Z,601.13
2022-07-28T16:08:33.408Z,584.27
2022-07-28T16:11:02.475Z,641.13
2022-07-28T16:13:36.409Z,20.77
2022-07-28T16:16:07.059Z,657.03
2022-07-28T16:18:35.077Z,589.20
2022-07-28T16:21:02.693Z,632.83
2022-07-28T16:23:30.350Z,618.30
2022-07-28T16:25:57.975Z,676.00
2022-07-28T16:28:27.429Z,203.73
2022-07-28T16:30:55.375Z,621.23
2022-07-28T16:33:23.139Z,715.43
2022-07-28T16:35:50.782Z,719.67
2022-07-28T16:38:20.116Z,702.97
2022-07-28T16:40:47.756Z,696.63
2022-07-28T16:43:15.379Z,234.33
2022-07-28T16:45:44.695Z,641.17
2022-07-28T16:48:13.124Z,702.37
2022-07-28T16:50:46.010Z,681.13
2022-07-28T16:53:14.037Z,664.20
2022-07-28T16:55:42.527Z,668.23
2022-07-28T16:58:10.155Z,639.00
2022-07-28T17:00:38.065Z,693.83
2022-07-28T17:03:07.421Z,717.43
2022-07-28T17:05:38.696Z,701.57
2022-07-28T17:08:06.361Z,761.30
2022-07-28T17:10:33.981Z,24.80
2022-07-28T17:13:01.579Z,756.17
2022-07-28T17:15:29.188Z,253.13
2022-07-28T17:17:56.861Z,258.77
2022-07-28T17:20:26.138Z,251.63
2022-07-28T17:22:53.729Z,709.10
2022-07-28T17:25:52.331Z,999.90
2022-07-28T17:28:09.036Z,432.23
2022-07-28T17:30:36.887Z,500.87
2022-07-28T17:33:08.610Z,501.87
2022-07-28T17:35:38.519Z,525.03
2022-07-28T17:38:09.115Z,517.87
2022-07-28T17:40:37.753Z,258.80
2022-07-28T17:43:05.801Z,164.93
2022-07-28T17:45:33.414Z,475.03
2022-07-28T17:48:01.019Z,540.33
2022-07-28T17:50:28.844Z,443.90
2022-07-28T17:52:57.825Z,64.60
2022-07-28T17:56:00.039Z,497.13
2022-07-28T17:58:29.015Z,679.43
2022-07-28T18:00:58.770Z,999.90
2022-07-28T18:04:00.036Z,238.33
2022-07-28T18:06:25.440Z,217.80
2022-07-28T18:08:54.412Z,218.53
2022-07-28T18:11:22.056Z,685.00
2022-07-28T18:14:04.137Z,637.50
2022-07-28T18:16:33.072Z,617.93
2022-07-28T18:19:00.702Z,22.67
2022-07-28T18:21:28.335Z,217.77
2022-07-28T18:23:57.294Z,677.20
2022-07-28T18:26:24.921Z,237.50
2022-07-28T18:28:52.536Z,648.30
2022-07-28T18:31:21.609Z,653.43
2022-07-28T18:33:49.368Z,705.93
2022-07-28T18:36:16.990Z,237.77
2022-07-28T18:38:44.577Z,32.60
2022-07-28T18:41:13.502Z,229.23
2022-07-28T18:43:41.718Z,651.33
2022-07-28T18:46:09.381Z,748.57
2022-07-28T18:48:37.997Z,730.47
2022-07-28T18:51:05.670Z,713.53
2022-07-28T18:53:33.226Z,771.17
2022-07-28T18:56:00.824Z,28.37
2022-07-28T18:58:29.774Z,211.73
2022-07-28T19:00:57.378Z,597.17
2022-07-28T19:03:25.004Z,599.73
2022-07-28T19:05:53.659Z,568.03
2022-07-28T19:08:21.611Z,550.77
2022-07-28T19:10:49.309Z,573.40
2022-07-28T19:13:16.947Z,477.43
2022-07-28T19:15:45.962Z,198.37
2022-07-28T19:18:13.670Z,567.90
2022-07-28T19:20:41.523Z,536.47
2022-07-28T19:23:09.121Z,521.60
2022-07-28T19:25:37.603Z,516.90
2022-07-28T19:28:05.879Z,25.40
2022-07-28T19:30:33.590Z,185.03
2022-07-28T19:33:02.626Z,175.53
2022-07-28T19:35:30.288Z,164.37
2022-07-28T19:37:59.836Z,674.50
2022-07-28T19:40:29.582Z,182.10
2022-07-28T19:42:57.433Z,511.97
2022-07-28T19:45:25.669Z,165.17
2022-07-28T19:47:54.502Z,170.30
2022-07-28T19:50:23.851Z,156.17
2022-07-28T19:52:51.512Z,478.20
2022-07-28T19:55:19.705Z,175.07
2022-07-28T19:57:47.337Z,184.97
2022-07-28T20:00:17.200Z,376.83
2022-07-28T20:02:45.737Z,428.13
2022-07-28T20:05:13.649Z,481.23
2022-07-28T20:07:43.193Z,21.93
2022-07-28T20:10:10.942Z,23.23
2022-07-28T20:12:38.555Z,22.00
2022-07-28T20:15:06.838Z,23.83
2022-07-28T20:17:39.544Z,23.43
2022-07-28T20:20:08.783Z,26.97
2022-07-28T20:22:37.352Z,24.83
2022-07-28T20:25:09.371Z,19.13
2022-07-28T20:27:40.031Z,18.83
2022-07-28T20:30:09.570Z,34.53
2022-07-28T20:32:37.836Z,23.33
2022-07-28T20:35:06.039Z,24.50
2022-07-28T20:37:36.504Z,25.07
2022-07-28T20:40:08.013Z,24.30
2022-07-28T20:42:35.952Z,29.20
2022-07-28T20:45:04.412Z,21.27
2022-07-28T20:47:32.707Z,25.23
2022-07-28T20:50:00.360Z,24.50
2022-07-28T20:52:27.937Z,25.37
2022-07-28T20:54:55.986Z,23.27
2022-07-28T20:57:24.986Z,25.47
2022-07-28T20:59:52.560Z,23.23
2022-07-28T21:02:20.555Z,22.07
2022-07-28T21:04:50.422Z,25.20
2022-07-28T21:08:00.801Z,22.33
2022-07-28T21:10:07.417Z,24.07
2022-07-28T21:12:37.052Z,20.00
2022-07-28T21:15:04.991Z,24.83
2022-07-28T21:17:32.601Z,23.53
2022-07-28T21:20:00.269Z,28.10
2022-07-28T21:22:27.867Z,28.60
2022-07-28T21:24:55.970Z,26.60
2022-07-28T21:27:24.186Z,27.23
2022-07-28T21:32:21.794Z,25.23
2022-07-28T21:34:49.426Z,351.40
2022-07-28T21:37:17.012Z,347.73
2022-07-28T21:39:44.572Z,350.03
2022-07-28T21:42:12.155Z,348.53
2022-07-28T21:44:39.793Z,348.27
2022-07-28T21:47:08.770Z,348.40
2022-07-28T21:49:36.382Z,347.77
2022-07-28T21:52:04.051Z,348.20
2022-07-28T21:54:31.732Z,349.93
2022-07-28T21:56:59.356Z,348.67
2022-07-28T21:59:27.100Z,350.47
2022-07-28T22:01:55.208Z,349.07
2022-07-28T22:04:24.299Z,347.37
2022-07-28T22:06:53.412Z,348.33
2022-07-28T22:09:21.108Z,346.87
2022-07-28T22:11:48.728Z,347.87
2022-07-28T22:14:16.935Z,350.63
2022-07-28T22:16:44.850Z,350.53
2022-07-28T22:19:12.778Z,347.97
2022-07-28T22:21:41.752Z,347.40
2022-07-28T22:24:09.802Z,350.07
2022-07-28T22:26:37.458Z,403.87
2022-07-28T22:29:05.072Z,408.17
2022-07-28T22:31:32.739Z,410.03
2022-07-28T22:34:00.327Z,410.00
2022-07-28T22:36:27.920Z,409.10
2022-07-28T22:38:56.901Z,404.53
2022-07-28T22:41:24.581Z,404.33
2022-07-28T22:43:52.261Z,999.90
2022-07-28T22:46:19.886Z,999.90
2022-07-28T22:48:47.581Z,999.90
2022-07-28T22:51:16.089Z,999.90
2022-07-28T22:53:43.643Z,999.90
2022-07-28T22:56:24.681Z,999.90
2022-07-28T22:58:52.418Z,999.90
2022-07-28T23:01:20.180Z,999.90
2022-07-28T23:03:48.062Z,999.90
2022-07-28T23:06:15.838Z,999.90
2022-07-28T23:08:43.492Z,999.90
2022-07-28T23:11:12.519Z,999.90
2022-07-28T23:13:40.898Z,999.90
2022-07-28T23:16:09.161Z,999.90
2022-07-28T23:18:36.945Z,999.90
2022-07-28T23:21:05.328Z,999.90
2022-07-28T23:23:33.051Z,999.90
2022-07-28T23:26:00.797Z,999.90
2022-07-28T23:28:30.016Z,999.90
2022-07-28T23:30:57.954Z,999.90
2022-07-28T23:33:55.696Z,999.90
2022-07-28T23:36:16.929Z,999.90
2022-07-28T23:38:54.114Z,999.90
2022-07-28T23:41:21.806Z,999.90
2022-07-28T23:43:50.922Z,999.90
2022-07-28T23:46:18.740Z,999.90
2022-07-28T23:48:46.516Z,999.90
2022-07-28T23:51:14.954Z,999.90
2022-07-28T23:53:42.669Z,999.90
2022-07-28T23:56:10.985Z,999.90
2022-07-28T23:58:38.698Z,999.90
